createdAt,value
2019-04-23T00:01:22.035Z,72.60
2019-04-23T00:03:34.605Z,71.50
2019-04-23T00:06:10.064Z,73.40
2019-04-23T00:08:39.591Z,75.40
2019-04-23T00:11:06.749Z,74.50
2019-04-23T00:13:30.502Z,72.60
2019-04-23T00:16:02.981Z,72.60
2019-04-23T00:18:37.778Z,73.30
2019-04-23T00:20:57.184Z,73.20
2019-04-23T00:23:32.665Z,73.50
2019-04-23T00:26:20.307Z,72.50
2019-04-23T00:28:29.188Z,74.60
2019-04-23T00:31:15.233Z,75.20
2019-04-23T00:33:24.807Z,73.80
2019-04-23T00:35:51.078Z,73.70
2019-04-23T00:38:29.866Z,74.50
2019-04-23T00:40:51.090Z,76.00
2019-04-23T00:45:48.425Z,78.60
2019-04-23T00:48:25.907Z,80.50
2019-04-23T00:50:57.489Z,80.20
2019-04-23T00:53:13.799Z,80.60
2019-04-23T00:55:46.611Z,80.50
2019-04-23T00:58:12.513Z,79.60
2019-04-23T01:00:41.221Z,79.60
2019-04-23T01:03:07.424Z,80.60
2019-04-23T01:05:35.213Z,80.40
2019-04-23T01:10:56.505Z,77.70
2019-04-23T01:15:56.282Z,77.50
2019-04-23T01:20:52.722Z,78.80
2019-04-23T01:23:11.904Z,78.00
2019-04-23T01:25:53.705Z,76.90
2019-04-23T01:28:35.649Z,76.00
2019-04-23T01:31:09.296Z,75.50
2019-04-23T01:36:12.440Z,75.30
2019-04-23T01:38:37.546Z,75.90
2019-04-23T01:40:53.871Z,75.40
2019-04-23T01:43:22.931Z,76.40
2019-04-23T01:45:49.526Z,76.80
2019-04-23T01:48:20.618Z,76.70
2019-04-23T01:50:54.275Z,76.60
2019-04-23T01:53:21.900Z,76.80
2019-04-23T01:55:46.563Z,78.50
2019-04-23T01:58:41.578Z,78.20
2019-04-23T02:00:51.423Z,77.00
2019-04-23T02:03:16.632Z,78.70
2019-04-23T02:05:44.860Z,80.00
2019-04-23T02:08:08.386Z,77.90
2019-04-23T02:18:11.511Z,76.70
2019-04-23T02:20:43.187Z,77.50
2019-04-23T02:25:56.917Z,78.10
2019-04-23T02:28:28.940Z,77.70
2019-04-23T02:31:18.606Z,79.00
2019-04-23T02:38:31.863Z,78.80
2019-04-23T02:41:27.614Z,80.70
2019-04-23T02:43:16.281Z,80.20
2019-04-23T02:45:56.650Z,79.50
2019-04-23T02:48:24.967Z,80.30
2019-04-23T02:50:54.187Z,80.00
2019-04-23T02:53:31.739Z,81.10
2019-04-23T02:58:22.181Z,80.70
2019-04-23T03:00:55.350Z,81.30
2019-04-23T03:05:46.596Z,83.70
2019-04-23T03:08:26.970Z,83.70
2019-04-23T03:10:59.666Z,82.50
2019-04-23T03:13:19.321Z,83.00
2019-04-23T03:16:12.148Z,83.50
2019-04-23T03:18:44.117Z,82.90
2019-04-23T03:21:24.510Z,82.00
2019-04-23T03:23:46.703Z,81.70
2019-04-23T03:26:25.256Z,81.70
2019-04-23T03:28:43.053Z,82.80
2019-04-23T03:34:02.871Z,82.80
2019-04-23T03:41:14.981Z,85.50
2019-04-23T03:43:33.367Z,85.60
2019-04-23T03:48:34.069Z,84.60
2019-04-23T03:51:10.711Z,86.30
2019-04-23T03:53:32.867Z,85.70
2019-04-23T03:56:05.070Z,84.60
2019-04-23T03:58:28.568Z,84.90
2019-04-23T04:00:58.091Z,84.40
2019-04-23T04:05:57.929Z,84.30
2019-04-23T04:08:18.060Z,85.90
2019-04-23T04:10:52.369Z,87.30
2019-04-23T04:13:15.978Z,86.50
2019-04-23T04:15:57.115Z,86.10
2019-04-23T04:21:03.315Z,85.30
2019-04-23T04:23:17.260Z,84.90
2019-04-23T04:25:44.992Z,84.50
2019-04-23T04:28:12.039Z,85.00
2019-04-23T04:30:48.303Z,85.70
2019-04-23T04:33:33.316Z,86.20
2019-04-23T04:36:00.732Z,87.90
2019-04-23T04:40:57.254Z,86.50
2019-04-23T04:43:31.764Z,86.90
2019-04-23T04:48:16.233Z,86.40
2019-04-23T04:50:50.732Z,86.90
2019-04-23T04:53:22.127Z,86.70
2019-04-23T04:55:49.257Z,87.90
2019-04-23T04:58:12.862Z,87.80
2019-04-23T05:01:00.198Z,86.60
2019-04-23T05:08:15.970Z,88.00
2019-04-23T05:10:55.861Z,88.70
2019-04-23T05:15:37.331Z,86.90
2019-04-23T05:20:42.982Z,86.90
2019-04-23T05:23:18.343Z,87.30
2019-04-23T05:25:42.908Z,87.10
2019-04-23T05:28:08.015Z,85.90
2019-04-23T05:30:41.235Z,86.70
2019-04-23T05:35:47.809Z,86.50
2019-04-23T05:42:58.874Z,86.70
2019-04-23T05:45:31.539Z,85.00
2019-04-23T05:48:09.715Z,86.10
2019-04-23T05:50:38.846Z,85.30
2019-04-23T05:52:59.045Z,84.30
2019-04-23T05:55:18.693Z,84.90
2019-04-23T05:57:53.988Z,85.80
2019-04-23T06:00:23.768Z,84.70
2019-04-23T06:05:20.021Z,85.50
2019-04-23T06:07:47.875Z,85.70
2019-04-23T06:10:23.283Z,85.70
2019-04-23T06:12:45.325Z,85.00
2019-04-23T06:15:11.583Z,85.30
2019-04-23T06:17:41.124Z,85.50
2019-04-23T06:20:09.417Z,85.30
2019-04-23T06:22:45.967Z,84.90
2019-04-23T06:25:14.945Z,85.50
2019-04-23T06:30:03.026Z,85.00
2019-04-23T06:32:34.223Z,85.20
2019-04-23T06:34:56.685Z,85.50
2019-04-23T06:37:47.647Z,85.00
2019-04-23T06:42:23.104Z,85.20
2019-04-23T06:47:23.444Z,84.00
2019-04-23T06:54:56.545Z,84.30
2019-04-23T06:59:48.612Z,83.00
2019-04-23T07:02:18.720Z,84.20
2019-04-23T07:04:50.082Z,84.00
2019-04-23T07:07:37.958Z,83.40
2019-04-23T07:09:42.349Z,82.50
2019-04-23T07:12:08.773Z,82.20
2019-04-23T07:14:54.343Z,82.20
2019-04-23T07:17:08.591Z,82.40
2019-04-23T07:22:14.647Z,82.10
2019-04-23T07:24:34.520Z,80.80
2019-04-23T07:27:03.330Z,81.60
2019-04-23T07:29:31.406Z,81.30
2019-04-23T07:31:59.283Z,80.50
2019-04-23T07:34:30.271Z,81.20
2019-04-23T07:37:03.399Z,80.70
2019-04-23T07:39:32.830Z,79.50
2019-04-23T07:44:56.387Z,80.50
2019-04-23T07:47:47.429Z,79.60
2019-04-23T07:52:51.550Z,80.10
2019-04-23T07:55:21.650Z,80.00
2019-04-23T07:57:44.295Z,78.90
2019-04-23T08:00:07.860Z,78.90
2019-04-23T08:07:41.050Z,77.70
2019-04-23T08:10:00.457Z,78.30
2019-04-23T08:12:31.588Z,79.10
2019-04-23T08:14:59.972Z,78.70
2019-04-23T08:17:31.260Z,78.20
2019-04-23T08:20:03.035Z,78.40
2019-04-23T08:22:30.425Z,78.40
2019-04-23T08:27:24.076Z,77.40
2019-04-23T08:30:00.493Z,77.20
2019-04-23T08:32:25.439Z,76.40
2019-04-23T08:35:01.657Z,77.20
2019-04-23T08:37:36.001Z,78.20
2019-04-23T08:39:56.693Z,78.50
2019-04-23T08:42:46.005Z,79.60
2019-04-23T08:45:18.552Z,77.70
2019-04-23T08:47:40.885Z,78.40
2019-04-23T08:50:15.467Z,77.20
2019-04-23T08:52:42.953Z,78.00
2019-04-23T08:55:12.389Z,76.70
2019-04-23T08:57:36.948Z,77.20
2019-04-23T09:00:09.256Z,77.40
2019-04-23T09:02:43.880Z,76.50
2019-04-23T09:05:11.475Z,76.00
2019-04-23T09:07:55.226Z,76.30
2019-04-23T09:10:08.391Z,76.90
2019-04-23T09:12:35.317Z,76.10
2019-04-23T09:15:03.910Z,76.40
2019-04-23T09:20:12.089Z,74.20
2019-04-23T09:22:29.365Z,74.90
2019-04-23T09:24:55.706Z,73.70
2019-04-23T09:27:27.425Z,73.70
2019-04-23T09:30:00.919Z,72.80
2019-04-23T09:35:02.353Z,72.80
2019-04-23T09:40:10.831Z,73.60
2019-04-23T09:45:34.256Z,73.40
2019-04-23T09:50:46.878Z,73.60
2019-04-23T10:00:46.760Z,73.10
2019-04-23T10:02:53.389Z,73.70
2019-04-23T10:05:22.631Z,73.10
2019-04-23T10:07:47.202Z,73.40
2019-04-23T10:10:05.480Z,72.40
2019-04-23T10:12:50.817Z,72.40
2019-04-23T10:15:40.388Z,71.20
2019-04-23T10:18:24.403Z,71.90
2019-04-23T10:21:11.279Z,72.50
2019-04-23T10:23:57.175Z,72.20
2019-04-23T10:30:31.089Z,72.70
2019-04-23T10:33:16.905Z,72.90
2019-04-23T10:36:08.511Z,73.80
2019-04-23T10:38:55.974Z,72.50
2019-04-23T10:41:38.434Z,71.50
2019-04-23T10:44:29.204Z,72.00
2019-04-23T10:53:52.514Z,69.20
2019-04-23T10:56:47.857Z,68.60
2019-04-23T10:59:42.131Z,68.40
2019-04-23T11:02:39.037Z,68.80
2019-04-23T11:05:35.937Z,68.30
2019-04-23T11:07:47.199Z,68.50
2019-04-23T11:10:48.455Z,69.30
2019-04-23T11:13:38.281Z,68.00
2019-04-23T11:16:47.283Z,67.10
2019-04-23T11:19:15.612Z,66.40
2019-04-23T11:22:05.586Z,69.70
2019-04-23T11:27:39.143Z,68.20
2019-04-23T11:30:30.618Z,68.20
2019-04-23T11:41:35.257Z,68.90
2019-04-23T11:44:22.119Z,68.70
2019-04-23T11:47:04.302Z,67.00
2019-04-23T11:52:41.423Z,65.20
2019-04-23T11:58:32.060Z,65.70
2019-04-23T12:01:17.266Z,66.90
2019-04-23T12:04:12.752Z,66.60
2019-04-23T12:06:55.972Z,65.80
2019-04-23T12:09:48.770Z,66.70
2019-04-23T12:15:28.049Z,67.70
2019-04-23T12:18:28.681Z,66.70
2019-04-23T12:21:00.146Z,66.20
2019-04-23T12:23:54.490Z,66.90
2019-04-23T12:26:47.047Z,65.30
2019-04-23T12:29:33.868Z,65.80
2019-04-23T12:38:00.999Z,67.70
2019-04-23T12:43:40.617Z,68.30
2019-04-23T12:46:26.037Z,66.90
2019-04-23T12:49:36.942Z,67.00
2019-04-23T12:57:43.812Z,67.90
2019-04-23T13:00:30.797Z,66.50
2019-04-23T13:03:08.547Z,67.10
2019-04-23T13:05:26.651Z,67.70
2019-04-23T13:07:53.930Z,67.00
2019-04-23T13:10:35.497Z,68.00
2019-04-23T13:25:10.239Z,65.10
2019-04-23T13:28:02.883Z,67.60
2019-04-23T13:30:56.610Z,66.10
2019-04-23T13:33:38.932Z,65.30
2019-04-23T13:36:32.807Z,63.60
2019-04-23T13:39:14.711Z,63.60
2019-04-23T13:41:57.926Z,64.10
2019-04-23T13:44:52.006Z,63.90
2019-04-23T13:47:50.799Z,63.20
2019-04-23T13:50:29.476Z,64.00
2019-04-23T13:55:45.558Z,63.70
2019-04-23T13:58:48.829Z,63.40
2019-04-23T14:01:30.885Z,63.70
2019-04-23T14:07:23.316Z,63.50
2019-04-23T14:10:11.957Z,64.20
2019-04-23T14:13:08.299Z,63.60
2019-04-23T14:15:44.917Z,63.10
2019-04-23T14:21:18.943Z,63.90
2019-04-23T14:26:50.587Z,65.50
2019-04-23T14:29:38.443Z,65.10
2019-04-23T14:32:36.865Z,64.80
2019-04-23T14:35:21.584Z,65.80
2019-04-23T14:38:15.780Z,65.50
2019-04-23T14:41:03.403Z,65.10
2019-04-23T14:43:40.623Z,64.30
2019-04-23T14:49:11.366Z,65.00
2019-04-23T14:51:58.927Z,65.30
2019-04-23T14:55:25.298Z,66.50
2019-04-23T14:57:42.271Z,66.40
2019-04-23T15:00:31.477Z,67.00
2019-04-23T15:03:20.333Z,65.70
2019-04-23T15:09:04.049Z,68.40
2019-04-23T15:11:34.629Z,69.20
2019-04-23T15:14:17.611Z,69.30
2019-04-23T15:17:07.533Z,69.10
2019-04-23T15:19:55.354Z,69.40
2019-04-23T15:23:02.761Z,69.70
2019-04-23T15:28:10.184Z,71.10
2019-04-23T15:31:09.577Z,71.00
2019-04-23T15:36:50.510Z,70.20
2019-04-23T15:39:32.791Z,70.20
2019-04-23T15:45:01.588Z,70.70
2019-04-23T15:50:43.427Z,71.10
2019-04-23T15:53:17.478Z,71.70
2019-04-23T15:55:59.585Z,72.20
2019-04-23T15:58:24.564Z,71.40
2019-04-23T16:01:21.823Z,71.30
2019-04-23T16:03:19.757Z,70.90
2019-04-23T16:05:44.733Z,71.10
2019-04-23T16:08:45.834Z,71.10
2019-04-23T16:11:15.702Z,70.70
2019-04-23T16:14:03.287Z,70.70
2019-04-23T16:16:10.612Z,70.90
2019-04-23T16:18:43.253Z,71.20
2019-04-23T16:21:27.400Z,71.30
2019-04-23T16:23:41.248Z,71.40
2019-04-23T16:26:09.932Z,71.80
2019-04-23T16:28:42.104Z,72.50
2019-04-23T16:31:13.001Z,72.70
2019-04-23T16:33:34.063Z,72.20
2019-04-23T16:36:12.689Z,73.10
2019-04-23T16:38:51.971Z,72.70
2019-04-23T16:41:03.922Z,72.90
2019-04-23T16:43:35.492Z,72.80
2019-04-23T16:46:07.330Z,73.30
2019-04-23T16:48:40.671Z,73.20
2019-04-23T16:53:24.076Z,73.10
2019-04-23T16:56:10.445Z,73.40
2019-04-23T17:03:29.021Z,73.50
2019-04-23T17:05:59.424Z,73.70
2019-04-23T17:11:00.048Z,73.70
2019-04-23T17:13:20.141Z,73.40
2019-04-23T17:15:58.088Z,73.10
2019-04-23T17:18:17.325Z,74.40
2019-04-23T17:20:47.030Z,73.90
2019-04-23T17:23:27.413Z,73.70
2019-04-23T17:25:41.786Z,73.70
2019-04-23T17:28:18.393Z,74.00
2019-04-23T17:31:03.944Z,74.00
2019-04-23T17:36:07.422Z,74.50
2019-04-23T17:41:14.492Z,74.50
2019-04-23T17:43:57.707Z,74.70
2019-04-23T17:46:14.838Z,74.60
2019-04-23T17:48:47.967Z,74.40
2019-04-23T17:51:13.331Z,74.70
2019-04-23T17:53:48.694Z,75.10
2019-04-23T17:58:51.925Z,75.60
2019-04-23T18:08:57.647Z,75.50
2019-04-23T18:13:46.376Z,75.50
2019-04-23T18:16:18.254Z,75.90
2019-04-23T18:18:48.383Z,75.60
2019-04-23T18:21:19.935Z,76.20
2019-04-23T18:23:55.601Z,76.20
2019-04-23T18:26:22.584Z,76.00
2019-04-23T18:29:04.521Z,75.90
2019-04-23T18:34:12.535Z,76.40
2019-04-23T18:36:18.355Z,76.20
2019-04-23T18:38:52.494Z,76.90
2019-04-23T18:41:17.112Z,76.50
2019-04-23T18:43:42.471Z,76.20
2019-04-23T18:51:38.401Z,76.80
2019-04-23T18:59:02.811Z,76.90
2019-04-23T19:01:11.313Z,77.10
2019-04-23T19:03:57.687Z,77.50
2019-04-23T19:09:03.192Z,77.10
2019-04-23T19:12:03.460Z,77.00
2019-04-23T19:14:30.539Z,77.70
2019-04-23T19:17:08.889Z,77.90
2019-04-23T19:19:19.958Z,77.60
2019-04-23T19:22:06.895Z,77.50
2019-04-23T19:24:12.603Z,77.50
2019-04-23T19:27:08.806Z,77.70
2019-04-23T19:29:11.618Z,78.50
2019-04-23T19:39:36.656Z,79.00
2019-04-23T19:44:17.927Z,78.80
2019-04-23T19:49:15.084Z,79.70
2019-04-23T19:51:44.552Z,79.40
2019-04-23T19:56:47.202Z,79.40
2019-04-23T19:59:01.790Z,79.70
2019-04-23T20:01:55.321Z,79.80
2019-04-23T20:03:57.933Z,79.80
2019-04-23T20:07:07.520Z,79.40
2019-04-23T20:11:37.884Z,80.10
2019-04-23T20:13:55.472Z,80.20
2019-04-23T20:18:57.618Z,80.30
2019-04-23T20:21:19.580Z,80.70
2019-04-23T20:24:04.001Z,82.60
2019-04-23T20:26:17.083Z,83.50
2019-04-23T20:32:28.707Z,82.70
2019-04-23T20:34:13.645Z,84.80
2019-04-23T20:36:40.090Z,84.50
2019-04-23T20:39:00.353Z,85.10
2019-04-23T20:41:32.513Z,85.80
2019-04-23T20:43:57.651Z,84.00
2019-04-23T20:46:25.963Z,84.00
2019-04-23T20:48:56.870Z,84.60
2019-04-23T20:51:29.167Z,84.70
2019-04-23T20:53:59.358Z,87.70
2019-04-23T20:56:27.175Z,88.90
2019-04-23T20:59:00.160Z,88.30
2019-04-23T21:03:56.759Z,88.30
2019-04-23T21:06:30.314Z,86.30
2019-04-23T21:09:20.208Z,86.40
2019-04-23T21:11:29.192Z,87.40
2019-04-23T21:14:03.528Z,87.60
2019-04-23T21:16:27.287Z,87.80
2019-04-23T21:18:49.870Z,86.90
2019-04-23T21:21:18.466Z,88.30
2019-04-23T21:23:50.334Z,90.50
2019-04-23T21:26:08.330Z,89.90
2019-04-23T21:28:44.052Z,89.70
2019-04-23T21:31:37.678Z,89.20
2019-04-23T21:34:06.095Z,88.70
2019-04-23T21:36:38.299Z,90.00
2019-04-23T21:39:07.675Z,89.70
2019-04-23T21:46:38.264Z,87.00
2019-04-23T21:49:19.739Z,86.70
2019-04-23T21:53:54.959Z,86.10
2019-04-23T21:56:33.248Z,86.20
2019-04-23T22:01:33.292Z,85.80
2019-04-23T22:04:09.104Z,85.60
2019-04-23T22:06:31.567Z,85.00
2019-04-23T22:09:00.624Z,85.30
2019-04-23T22:11:44.263Z,84.70
2019-04-23T22:14:05.514Z,84.60
2019-04-23T22:16:23.833Z,84.10
2019-04-23T22:19:05.732Z,84.10
2019-04-23T22:21:20.877Z,84.30
2019-04-23T22:23:57.976Z,85.20
2019-04-23T22:28:50.084Z,84.60
2019-04-23T22:33:46.631Z,84.30
2019-04-23T22:36:09.801Z,83.90
2019-04-23T22:38:33.956Z,84.30
2019-04-23T22:41:01.789Z,83.70
2019-04-23T22:48:34.588Z,83.50
2019-04-23T22:51:18.611Z,84.50
2019-04-23T22:53:28.848Z,83.70
2019-04-23T22:58:27.613Z,84.60
2019-04-23T23:03:49.052Z,84.70
2019-04-23T23:06:29.544Z,84.30
2019-04-23T23:08:55.246Z,83.70
2019-04-23T23:11:13.999Z,84.20
2019-04-23T23:18:35.473Z,84.00
2019-04-23T23:21:07.956Z,84.20
2019-04-23T23:26:02.402Z,84.30
2019-04-23T23:28:35.189Z,84.20
2019-04-23T23:31:05.329Z,85.30
2019-04-23T23:33:24.666Z,84.20
2019-04-23T23:36:00.129Z,84.10
2019-04-23T23:38:33.542Z,83.30
2019-04-23T23:40:57.114Z,83.60
2019-04-23T23:46:01.239Z,84.00
2019-04-23T23:48:19.790Z,84.40
2019-04-23T23:50:54.721Z,84.20
2019-04-23T23:55:49.266Z,84.60
